Lamar, Missouri
Current Conditions -  °F | °C
As of 7:35 AM on Monday 24 Nov 2014 (Local Time) from KPTS Reporting Station
Clear Clear  
Wind Chill: 31°   Ceiling: Unl
Heat Index: 36°   Visibility: 10mi
Dew Point: 31°   Wind: 6mph
Humidity: 82%   Direction: 250°WSW
Pressure: 29.77"   Gusts: NA
Location:  37.5°N, 94.28°W
Report Text: KPTS 241335Z AUTO 25005KT 10SM CLR 02/M01 A2977 RMK AO2 T00211006
Loading
Personal Weather Stations






























Interactive Weather Map New forecast layout! Learn more

10-Day Weather Forecast

Advertisements
Track Severe Weather on mobile